sensor_id;sensor_type;location;lat;lon;timestamp;temperature;humidity
31131;DHT22;20292;50.944;4.034;2022-12-20T00:01:21;12.20;99.90
31131;DHT22;20292;50.944;4.034;2022-12-20T00:03:51;12.20;99.90
31131;DHT22;20292;50.944;4.034;2022-12-20T00:06:18;12.20;99.90
31131;DHT22;20292;50.944;4.034;2022-12-20T00:08:44;12.30;99.90
31131;DHT22;20292;50.944;4.034;2022-12-20T00:11:10;12.30;99.90
31131;DHT22;20292;50.944;4.034;2022-12-20T00:13:36;12.40;99.90
31131;DHT22;20292;50.944;4.034;2022-12-20T00:16:16;12.30;99.90
31131;DHT22;20292;50.944;4.034;2022-12-20T00:18:42;12.30;99.90
31131;DHT22;20292;50.944;4.034;2022-12-20T00:21:11;12.30;99.90
31131;DHT22;20292;50.944;4.034;2022-12-20T00:23:37;12.30;99.90
31131;DHT22;20292;50.944;4.034;2022-12-20T00:26:06;12.30;99.90
31131;DHT22;20292;50.944;4.034;2022-12-20T00:28:33;12.40;99.90
31131;DHT22;20292;50.944;4.034;2022-12-20T00:30:59;12.30;99.90
31131;DHT22;20292;50.944;4.034;2022-12-20T00:33:25;12.30;99.90
31131;DHT22;20292;50.944;4.034;2022-12-20T00:35:51;12.30;99.90
31131;DHT22;20292;50.944;4.034;2022-12-20T00:38:18;12.10;99.90
31131;DHT22;20292;50.944;4.034;2022-12-20T00:40:44;12.00;99.90
31131;DHT22;20292;50.944;4.034;2022-12-20T00:43:09;12.00;99.90
31131;DHT22;20292;50.944;4.034;2022-12-20T00:45:35;12.00;99.90
31131;DHT22;20292;50.944;4.034;2022-12-20T00:48:00;11.90;99.90
31131;DHT22;20292;50.944;4.034;2022-12-20T00:50:26;11.90;99.90
31131;DHT22;20292;50.944;4.034;2022-12-20T00:52:51;11.90;99.90
31131;DHT22;20292;50.944;4.034;2022-12-20T00:55:17;11.90;99.90
31131;DHT22;20292;50.944;4.034;2022-12-20T00:57:42;12.00;99.90
31131;DHT22;20292;50.944;4.034;2022-12-20T01:00:08;12.10;99.90
31131;DHT22;20292;50.944;4.034;2022-12-20T01:02:34;12.10;99.90
31131;DHT22;20292;50.944;4.034;2022-12-20T01:05:00;12.10;99.90
31131;DHT22;20292;50.944;4.034;2022-12-20T01:07:25;12.00;99.90
31131;DHT22;20292;50.944;4.034;2022-12-20T01:09:51;12.10;99.90
31131;DHT22;20292;50.944;4.034;2022-12-20T01:12:17;12.10;99.90
31131;DHT22;20292;50.944;4.034;2022-12-20T01:14:43;12.00;99.90
31131;DHT22;20292;50.944;4.034;2022-12-20T01:17:09;12.00;99.90
31131;DHT22;20292;50.944;4.034;2022-12-20T01:19:35;12.00;99.90
31131;DHT22;20292;50.944;4.034;2022-12-20T01:22:00;11.90;99.90
31131;DHT22;20292;50.944;4.034;2022-12-20T01:24:26;11.80;99.90
31131;DHT22;20292;50.944;4.034;2022-12-20T01:26:51;11.80;99.90
31131;DHT22;20292;50.944;4.034;2022-12-20T01:29:17;11.80;99.90
31131;DHT22;20292;50.944;4.034;2022-12-20T01:31:43;11.80;99.90
31131;DHT22;20292;50.944;4.034;2022-12-20T01:34:09;11.90;99.90
31131;DHT22;20292;50.944;4.034;2022-12-20T01:36:35;11.80;99.90
31131;DHT22;20292;50.944;4.034;2022-12-20T01:39:14;11.90;99.90
31131;DHT22;20292;50.944;4.034;2022-12-20T01:41:42;11.90;99.90
31131;DHT22;20292;50.944;4.034;2022-12-20T01:46:45;11.90;99.90
31131;DHT22;20292;50.944;4.034;2022-12-20T01:49:23;11.90;99.90
31131;DHT22;20292;50.944;4.034;2022-12-20T01:52:08;11.90;99.90
31131;DHT22;20292;50.944;4.034;2022-12-20T01:54:38;11.80;99.90
31131;DHT22;20292;50.944;4.034;2022-12-20T01:57:13;11.80;99.90
31131;DHT22;20292;50.944;4.034;2022-12-20T01:59:42;11.80;99.90
31131;DHT22;20292;50.944;4.034;2022-12-20T02:02:10;11.80;99.90
31131;DHT22;20292;50.944;4.034;2022-12-20T02:04:36;11.70;99.90
31131;DHT22;20292;50.944;4.034;2022-12-20T02:07:02;11.80;99.90
31131;DHT22;20292;50.944;4.034;2022-12-20T02:09:29;11.80;99.90
31131;DHT22;20292;50.944;4.034;2022-12-20T02:12:09;11.90;99.90
31131;DHT22;20292;50.944;4.034;2022-12-20T02:14:59;11.90;99.90
31131;DHT22;20292;50.944;4.034;2022-12-20T02:17:56;11.80;99.90
31131;DHT22;20292;50.944;4.034;2022-12-20T02:32:13;11.80;99.90
31131;DHT22;20292;50.944;4.034;2022-12-20T02:34:41;11.90;99.90
31131;DHT22;20292;50.944;4.034;2022-12-20T02:37:07;11.90;99.90
31131;DHT22;20292;50.944;4.034;2022-12-20T02:39:35;11.90;99.90
31131;DHT22;20292;50.944;4.034;2022-12-20T02:42:23;11.90;99.90
31131;DHT22;20292;50.944;4.034;2022-12-20T02:44:55;11.90;99.90
31131;DHT22;20292;50.944;4.034;2022-12-20T02:47:47;11.90;99.90
31131;DHT22;20292;50.944;4.034;2022-12-20T02:50:17;12.00;99.90
31131;DHT22;20292;50.944;4.034;2022-12-20T02:52:44;12.00;99.90
31131;DHT22;20292;50.944;4.034;2022-12-20T02:55:10;12.00;99.90
31131;DHT22;20292;50.944;4.034;2022-12-20T02:58:20;12.00;99.90
31131;DHT22;20292;50.944;4.034;2022-12-20T03:00:39;12.10;99.90
31131;DHT22;20292;50.944;4.034;2022-12-20T03:03:06;12.00;99.90
31131;DHT22;20292;50.944;4.034;2022-12-20T03:05:49;12.10;99.90
31131;DHT22;20292;50.944;4.034;2022-12-20T03:08:16;12.10;99.90
31131;DHT22;20292;50.944;4.034;2022-12-20T03:10:41;12.20;99.90
31131;DHT22;20292;50.944;4.034;2022-12-20T03:13:07;12.10;99.90
31131;DHT22;20292;50.944;4.034;2022-12-20T03:15:33;12.10;99.90
31131;DHT22;20292;50.944;4.034;2022-12-20T03:17:58;12.20;99.90
31131;DHT22;20292;50.944;4.034;2022-12-20T03:20:24;12.20;99.90
31131;DHT22;20292;50.944;4.034;2022-12-20T03:22:49;12.20;99.90
31131;DHT22;20292;50.944;4.034;2022-12-20T03:25:15;12.20;99.90
31131;DHT22;20292;50.944;4.034;2022-12-20T03:27:41;12.10;99.90
31131;DHT22;20292;50.944;4.034;2022-12-20T03:30:07;12.20;99.90
31131;DHT22;20292;50.944;4.034;2022-12-20T03:32:33;12.30;99.90
31131;DHT22;20292;50.944;4.034;2022-12-20T03:34:59;12.30;99.90
31131;DHT22;20292;50.944;4.034;2022-12-20T03:37:24;12.30;99.90
31131;DHT22;20292;50.944;4.034;2022-12-20T03:39:50;12.30;99.90
31131;DHT22;20292;50.944;4.034;2022-12-20T03:42:15;12.30;99.90
31131;DHT22;20292;50.944;4.034;2022-12-20T03:44:41;12.30;99.90
31131;DHT22;20292;50.944;4.034;2022-12-20T03:47:07;12.30;99.90
31131;DHT22;20292;50.944;4.034;2022-12-20T03:49:32;12.30;99.90
31131;DHT22;20292;50.944;4.034;2022-12-20T03:51:58;12.40;99.90
31131;DHT22;20292;50.944;4.034;2022-12-20T03:54:23;12.30;99.90
31131;DHT22;20292;50.944;4.034;2022-12-20T03:56:49;12.30;99.90
31131;DHT22;20292;50.944;4.034;2022-12-20T03:59:15;12.30;99.90
31131;DHT22;20292;50.944;4.034;2022-12-20T04:01:40;12.30;99.90
31131;DHT22;20292;50.944;4.034;2022-12-20T04:04:13;12.40;99.90
31131;DHT22;20292;50.944;4.034;2022-12-20T04:06:39;12.40;99.90
31131;DHT22;20292;50.944;4.034;2022-12-20T04:09:05;12.40;99.90
31131;DHT22;20292;50.944;4.034;2022-12-20T04:11:31;12.50;99.90
31131;DHT22;20292;50.944;4.034;2022-12-20T04:13:57;12.40;99.90
31131;DHT22;20292;50.944;4.034;2022-12-20T04:16:27;12.50;99.90
31131;DHT22;20292;50.944;4.034;2022-12-20T04:18:53;12.50;99.90
31131;DHT22;20292;50.944;4.034;2022-12-20T04:21:24;12.50;99.90
31131;DHT22;20292;50.944;4.034;2022-12-20T04:23:50;12.50;99.90
31131;DHT22;20292;50.944;4.034;2022-12-20T04:26:15;12.50;99.90
31131;DHT22;20292;50.944;4.034;2022-12-20T04:28:41;12.50;99.90
31131;DHT22;20292;50.944;4.034;2022-12-20T04:31:06;12.50;99.90
31131;DHT22;20292;50.944;4.034;2022-12-20T04:33:32;12.50;99.90
31131;DHT22;20292;50.944;4.034;2022-12-20T04:35:58;12.50;99.90
31131;DHT22;20292;50.944;4.034;2022-12-20T04:38:24;12.40;99.90
31131;DHT22;20292;50.944;4.034;2022-12-20T04:40:51;12.40;99.90
31131;DHT22;20292;50.944;4.034;2022-12-20T04:43:18;12.40;99.90
31131;DHT22;20292;50.944;4.034;2022-12-20T04:45:45;12.50;99.90
31131;DHT22;20292;50.944;4.034;2022-12-20T04:48:11;12.50;99.90
31131;DHT22;20292;50.944;4.034;2022-12-20T04:50:37;12.40;99.90
31131;DHT22;20292;50.944;4.034;2022-12-20T04:53:03;12.30;99.90
31131;DHT22;20292;50.944;4.034;2022-12-20T04:55:47;12.20;99.90
31131;DHT22;20292;50.944;4.034;2022-12-20T04:58:13;12.20;99.90
31131;DHT22;20292;50.944;4.034;2022-12-20T05:00:38;12.10;99.90
31131;DHT22;20292;50.944;4.034;2022-12-20T05:03:04;12.10;99.90
31131;DHT22;20292;50.944;4.034;2022-12-20T05:05:29;12.00;99.90
31131;DHT22;20292;50.944;4.034;2022-12-20T05:07:55;11.90;99.90
31131;DHT22;20292;50.944;4.034;2022-12-20T05:10:21;11.90;99.90
31131;DHT22;20292;50.944;4.034;2022-12-20T05:12:46;11.90;99.90
31131;DHT22;20292;50.944;4.034;2022-12-20T05:15:12;11.90;99.90
31131;DHT22;20292;50.944;4.034;2022-12-20T05:17:38;12.00;99.90
31131;DHT22;20292;50.944;4.034;2022-12-20T05:20:05;12.00;99.90
31131;DHT22;20292;50.944;4.034;2022-12-20T05:22:30;12.00;99.90
31131;DHT22;20292;50.944;4.034;2022-12-20T05:25:15;12.00;99.90
31131;DHT22;20292;50.944;4.034;2022-12-20T05:27:59;12.00;99.90
31131;DHT22;20292;50.944;4.034;2022-12-20T05:30:25;12.00;99.90
31131;DHT22;20292;50.944;4.034;2022-12-20T05:32:51;12.00;99.90
31131;DHT22;20292;50.944;4.034;2022-12-20T05:35:16;11.90;99.90
31131;DHT22;20292;50.944;4.034;2022-12-20T05:37:42;11.90;99.90
31131;DHT22;20292;50.944;4.034;2022-12-20T05:40:08;11.90;99.90
31131;DHT22;20292;50.944;4.034;2022-12-20T05:42:34;11.90;99.90
31131;DHT22;20292;50.944;4.034;2022-12-20T05:45:00;12.00;99.90
31131;DHT22;20292;50.944;4.034;2022-12-20T05:47:26;12.00;99.90
31131;DHT22;20292;50.944;4.034;2022-12-20T05:49:52;11.90;99.90
31131;DHT22;20292;50.944;4.034;2022-12-20T05:52:17;12.00;99.90
31131;DHT22;20292;50.944;4.034;2022-12-20T05:54:43;12.00;99.90
31131;DHT22;20292;50.944;4.034;2022-12-20T05:57:09;12.00;99.90
31131;DHT22;20292;50.944;4.034;2022-12-20T05:59:34;12.00;99.90
31131;DHT22;20292;50.944;4.034;2022-12-20T06:02:00;12.10;99.90
31131;DHT22;20292;50.944;4.034;2022-12-20T06:04:26;12.10;99.90
31131;DHT22;20292;50.944;4.034;2022-12-20T06:06:51;12.20;99.90
31131;DHT22;20292;50.944;4.034;2022-12-20T06:09:17;12.20;99.90
31131;DHT22;20292;50.944;4.034;2022-12-20T06:11:42;12.30;99.90
31131;DHT22;20292;50.944;4.034;2022-12-20T06:14:08;12.30;99.90
31131;DHT22;20292;50.944;4.034;2022-12-20T06:16:34;12.30;99.90
31131;DHT22;20292;50.944;4.034;2022-12-20T06:19:00;12.30;99.90
31131;DHT22;20292;50.944;4.034;2022-12-20T06:21:27;12.30;99.90
31131;DHT22;20292;50.944;4.034;2022-12-20T06:23:53;12.20;99.90
31131;DHT22;20292;50.944;4.034;2022-12-20T06:26:19;12.20;99.90
31131;DHT22;20292;50.944;4.034;2022-12-20T06:28:48;12.30;99.90
31131;DHT22;20292;50.944;4.034;2022-12-20T06:31:17;12.30;99.90
31131;DHT22;20292;50.944;4.034;2022-12-20T06:33:43;12.30;99.90
31131;DHT22;20292;50.944;4.034;2022-12-20T06:36:09;12.30;99.90
31131;DHT22;20292;50.944;4.034;2022-12-20T06:38:34;12.30;99.90
31131;DHT22;20292;50.944;4.034;2022-12-20T06:41:01;12.30;99.90
31131;DHT22;20292;50.944;4.034;2022-12-20T06:43:26;12.40;99.90
31131;DHT22;20292;50.944;4.034;2022-12-20T06:45:52;12.30;99.90
31131;DHT22;20292;50.944;4.034;2022-12-20T06:48:17;12.30;99.90
31131;DHT22;20292;50.944;4.034;2022-12-20T06:50:47;12.40;99.90
31131;DHT22;20292;50.944;4.034;2022-12-20T06:53:13;12.40;99.90
31131;DHT22;20292;50.944;4.034;2022-12-20T06:55:38;12.40;99.90
31131;DHT22;20292;50.944;4.034;2022-12-20T06:58:04;12.40;99.90
31131;DHT22;20292;50.944;4.034;2022-12-20T07:00:30;12.40;99.90
31131;DHT22;20292;50.944;4.034;2022-12-20T07:02:55;12.40;99.90
31131;DHT22;20292;50.944;4.034;2022-12-20T07:05:21;12.40;99.90
31131;DHT22;20292;50.944;4.034;2022-12-20T07:07:46;12.40;99.90
31131;DHT22;20292;50.944;4.034;2022-12-20T07:10:12;12.40;99.90
31131;DHT22;20292;50.944;4.034;2022-12-20T07:12:38;12.30;99.90
31131;DHT22;20292;50.944;4.034;2022-12-20T07:15:04;12.30;99.90
31131;DHT22;20292;50.944;4.034;2022-12-20T07:17:29;12.30;99.90
31131;DHT22;20292;50.944;4.034;2022-12-20T07:19:55;12.30;99.90
31131;DHT22;20292;50.944;4.034;2022-12-20T07:22:21;12.30;99.90
31131;DHT22;20292;50.944;4.034;2022-12-20T07:24:46;12.20;99.90
31131;DHT22;20292;50.944;4.034;2022-12-20T07:27:12;12.20;99.90
31131;DHT22;20292;50.944;4.034;2022-12-20T07:29:38;12.20;99.90
31131;DHT22;20292;50.944;4.034;2022-12-20T07:32:06;12.20;99.90
31131;DHT22;20292;50.944;4.034;2022-12-20T07:34:32;12.10;99.90
31131;DHT22;20292;50.944;4.034;2022-12-20T07:36:57;12.20;99.90
31131;DHT22;20292;50.944;4.034;2022-12-20T07:39:23;12.10;99.90
31131;DHT22;20292;50.944;4.034;2022-12-20T07:41:53;12.10;99.90
31131;DHT22;20292;50.944;4.034;2022-12-20T07:44:19;12.10;99.90
31131;DHT22;20292;50.944;4.034;2022-12-20T07:46:44;12.00;99.90
31131;DHT22;20292;50.944;4.034;2022-12-20T07:49:10;12.00;99.90
31131;DHT22;20292;50.944;4.034;2022-12-20T07:51:38;11.90;99.90
31131;DHT22;20292;50.944;4.034;2022-12-20T07:56:46;12.00;99.90
31131;DHT22;20292;50.944;4.034;2022-12-20T07:59:15;12.00;99.90
31131;DHT22;20292;50.944;4.034;2022-12-20T08:01:43;12.00;99.90
31131;DHT22;20292;50.944;4.034;2022-12-20T08:04:19;12.00;99.90
31131;DHT22;20292;50.944;4.034;2022-12-20T08:06:45;12.10;99.90
31131;DHT22;20292;50.944;4.034;2022-12-20T08:09:13;12.10;99.90
31131;DHT22;20292;50.944;4.034;2022-12-20T08:11:41;12.00;99.90
31131;DHT22;20292;50.944;4.034;2022-12-20T08:14:09;12.00;99.90
31131;DHT22;20292;50.944;4.034;2022-12-20T08:16:35;12.10;99.90
31131;DHT22;20292;50.944;4.034;2022-12-20T08:19:00;12.10;99.90
31131;DHT22;20292;50.944;4.034;2022-12-20T08:21:26;12.10;99.90
31131;DHT22;20292;50.944;4.034;2022-12-20T08:23:51;12.10;99.90
31131;DHT22;20292;50.944;4.034;2022-12-20T08:26:17;12.10;99.90
31131;DHT22;20292;50.944;4.034;2022-12-20T08:28:43;12.10;99.90
31131;DHT22;20292;50.944;4.034;2022-12-20T08:31:09;12.10;99.90
31131;DHT22;20292;50.944;4.034;2022-12-20T08:33:37;12.10;99.90
31131;DHT22;20292;50.944;4.034;2022-12-20T08:36:06;12.20;99.90
31131;DHT22;20292;50.944;4.034;2022-12-20T08:38:32;12.20;99.90
31131;DHT22;20292;50.944;4.034;2022-12-20T08:43:28;12.20;99.90
31131;DHT22;20292;50.944;4.034;2022-12-20T08:45:54;12.20;99.90
31131;DHT22;20292;50.944;4.034;2022-12-20T08:48:20;12.20;99.90
31131;DHT22;20292;50.944;4.034;2022-12-20T08:50:46;12.20;99.90
31131;DHT22;20292;50.944;4.034;2022-12-20T08:53:12;12.20;99.90
31131;DHT22;20292;50.944;4.034;2022-12-20T08:55:37;12.20;99.90
31131;DHT22;20292;50.944;4.034;2022-12-20T08:58:03;12.10;99.90
31131;DHT22;20292;50.944;4.034;2022-12-20T09:00:28;12.10;99.90
31131;DHT22;20292;50.944;4.034;2022-12-20T09:02:54;12.10;99.90
31131;DHT22;20292;50.944;4.034;2022-12-20T09:05:19;12.00;99.90
31131;DHT22;20292;50.944;4.034;2022-12-20T09:07:45;12.00;99.90
31131;DHT22;20292;50.944;4.034;2022-12-20T09:10:11;11.90;99.90
31131;DHT22;20292;50.944;4.034;2022-12-20T09:12:37;12.00;99.90
31131;DHT22;20292;50.944;4.034;2022-12-20T09:15:04;12.00;99.90
31131;DHT22;20292;50.944;4.034;2022-12-20T09:17:30;11.90;99.90
31131;DHT22;20292;50.944;4.034;2022-12-20T09:19:55;12.00;99.90
31131;DHT22;20292;50.944;4.034;2022-12-20T09:22:21;12.00;99.90
31131;DHT22;20292;50.944;4.034;2022-12-20T09:24:46;12.00;99.90
31131;DHT22;20292;50.944;4.034;2022-12-20T09:27:12;12.00;99.90
31131;DHT22;20292;50.944;4.034;2022-12-20T09:29:38;12.00;99.90
31131;DHT22;20292;50.944;4.034;2022-12-20T09:32:03;12.00;99.90
31131;DHT22;20292;50.944;4.034;2022-12-20T09:34:29;12.10;99.90
31131;DHT22;20292;50.944;4.034;2022-12-20T09:36:54;12.10;99.90
31131;DHT22;20292;50.944;4.034;2022-12-20T09:39:20;12.10;99.90
31131;DHT22;20292;50.944;4.034;2022-12-20T09:41:45;12.20;99.90
31131;DHT22;20292;50.944;4.034;2022-12-20T09:46:43;12.10;99.90
31131;DHT22;20292;50.944;4.034;2022-12-20T09:49:16;12.00;99.90
31131;DHT22;20292;50.944;4.034;2022-12-20T09:51:55;12.10;99.90
31131;DHT22;20292;50.944;4.034;2022-12-20T09:59:57;12.20;99.90
31131;DHT22;20292;50.944;4.034;2022-12-20T10:02:24;12.10;99.90
31131;DHT22;20292;50.944;4.034;2022-12-20T10:04:52;12.10;99.90
31131;DHT22;20292;50.944;4.034;2022-12-20T10:07:38;12.10;99.90
31131;DHT22;20292;50.944;4.034;2022-12-20T10:15:37;12.20;99.90
31131;DHT22;20292;50.944;4.034;2022-12-20T10:18:25;12.20;99.90
31131;DHT22;20292;50.944;4.034;2022-12-20T10:23:45;12.40;99.90
31131;DHT22;20292;50.944;4.034;2022-12-20T10:26:17;12.40;99.90
31131;DHT22;20292;50.944;4.034;2022-12-20T10:28:43;12.40;99.90
31131;DHT22;20292;50.944;4.034;2022-12-20T10:31:13;12.40;99.90
31131;DHT22;20292;50.944;4.034;2022-12-20T10:33:40;12.40;99.90
31131;DHT22;20292;50.944;4.034;2022-12-20T10:38:51;12.50;99.90
31131;DHT22;20292;50.944;4.034;2022-12-20T10:41:19;12.50;99.90
31131;DHT22;20292;50.944;4.034;2022-12-20T10:43:47;12.50;99.90
31131;DHT22;20292;50.944;4.034;2022-12-20T10:46:14;12.50;99.90
31131;DHT22;20292;50.944;4.034;2022-12-20T10:48:44;12.60;99.90
31131;DHT22;20292;50.944;4.034;2022-12-20T10:54:19;12.60;99.90
31131;DHT22;20292;50.944;4.034;2022-12-20T10:56:54;12.70;99.90
31131;DHT22;20292;50.944;4.034;2022-12-20T10:59:32;12.70;99.90
31131;DHT22;20292;50.944;4.034;2022-12-20T11:01:59;12.70;99.90
31131;DHT22;20292;50.944;4.034;2022-12-20T11:04:29;12.70;99.90
31131;DHT22;20292;50.944;4.034;2022-12-20T11:06:56;12.70;99.90
31131;DHT22;20292;50.944;4.034;2022-12-20T11:09:35;12.70;99.90
31131;DHT22;20292;50.944;4.034;2022-12-20T11:12:15;12.80;99.90
31131;DHT22;20292;50.944;4.034;2022-12-20T11:14:43;12.70;99.90
31131;DHT22;20292;50.944;4.034;2022-12-20T11:17:36;12.70;99.90
31131;DHT22;20292;50.944;4.034;2022-12-20T11:20:06;12.70;99.90
31131;DHT22;20292;50.944;4.034;2022-12-20T11:42:12;12.60;99.90
31131;DHT22;20292;50.944;4.034;2022-12-20T11:47:59;12.60;99.90
31131;DHT22;20292;50.944;4.034;2022-12-20T11:53:31;12.50;99.90
31131;DHT22;20292;50.944;4.034;2022-12-20T11:56:04;12.50;99.90
31131;DHT22;20292;50.944;4.034;2022-12-20T11:59:09;12.50;99.90
31131;DHT22;20292;50.944;4.034;2022-12-20T12:01:38;12.40;99.90
31131;DHT22;20292;50.944;4.034;2022-12-20T12:04:13;12.50;99.90
31131;DHT22;20292;50.944;4.034;2022-12-20T12:09:41;12.50;99.90
31131;DHT22;20292;50.944;4.034;2022-12-20T12:12:22;12.60;99.90
31131;DHT22;20292;50.944;4.034;2022-12-20T12:17:55;12.60;99.90
31131;DHT22;20292;50.944;4.034;2022-12-20T12:25:47;12.50;99.90
31131;DHT22;20292;50.944;4.034;2022-12-20T12:28:14;12.50;99.90
31131;DHT22;20292;50.944;4.034;2022-12-20T12:30:44;12.50;99.90
31131;DHT22;20292;50.944;4.034;2022-12-20T12:33:26;12.40;99.90
31131;DHT22;20292;50.944;4.034;2022-12-20T12:39:13;12.40;99.90
31131;DHT22;20292;50.944;4.034;2022-12-20T12:42:16;12.40;99.90
31131;DHT22;20292;50.944;4.034;2022-12-20T12:44:57;12.30;99.90
31131;DHT22;20292;50.944;4.034;2022-12-20T12:49:57;12.30;99.90
31131;DHT22;20292;50.944;4.034;2022-12-20T12:52:28;12.30;99.90
31131;DHT22;20292;50.944;4.034;2022-12-20T12:55:00;12.40;99.90
31131;DHT22;20292;50.944;4.034;2022-12-20T12:57:25;12.40;99.90
31131;DHT22;20292;50.944;4.034;2022-12-20T12:59:51;12.40;99.90
31131;DHT22;20292;50.944;4.034;2022-12-20T13:04:55;12.30;99.90
31131;DHT22;20292;50.944;4.034;2022-12-20T13:09:58;12.30;99.90
31131;DHT22;20292;50.944;4.034;2022-12-20T13:17:54;12.30;99.90
31131;DHT22;20292;50.944;4.034;2022-12-20T13:20:24;12.30;99.90
31131;DHT22;20292;50.944;4.034;2022-12-20T13:25:44;12.40;99.90
31131;DHT22;20292;50.944;4.034;2022-12-20T13:33:46;12.30;99.90
31131;DHT22;20292;50.944;4.034;2022-12-20T13:38:49;12.40;99.90
31131;DHT22;20292;50.944;4.034;2022-12-20T13:46:59;12.40;99.90
31131;DHT22;20292;50.944;4.034;2022-12-20T13:54:45;12.40;99.90
31131;DHT22;20292;50.944;4.034;2022-12-20T13:57:16;12.40;99.90
31131;DHT22;20292;50.944;4.034;2022-12-20T13:59:47;12.40;99.90
31131;DHT22;20292;50.944;4.034;2022-12-20T14:02:35;12.50;99.90
31131;DHT22;20292;50.944;4.034;2022-12-20T14:05:12;12.50;99.90
31131;DHT22;20292;50.944;4.034;2022-12-20T14:07:39;12.50;99.90
31131;DHT22;20292;50.944;4.034;2022-12-20T14:10:20;12.50;99.90
31131;DHT22;20292;50.944;4.034;2022-12-20T14:12:49;12.50;99.90
31131;DHT22;20292;50.944;4.034;2022-12-20T14:15:32;12.40;99.90
31131;DHT22;20292;50.944;4.034;2022-12-20T14:18:14;12.40;99.90
31131;DHT22;20292;50.944;4.034;2022-12-20T14:20:41;12.40;99.90
31131;DHT22;20292;50.944;4.034;2022-12-20T14:23:14;12.40;99.90
31131;DHT22;20292;50.944;4.034;2022-12-20T14:25:53;12.40;99.90
31131;DHT22;20292;50.944;4.034;2022-12-20T14:28:35;12.50;99.90
31131;DHT22;20292;50.944;4.034;2022-12-20T14:31:04;12.50;99.90
31131;DHT22;20292;50.944;4.034;2022-12-20T14:33:38;12.50;99.90
31131;DHT22;20292;50.944;4.034;2022-12-20T14:36:08;12.50;99.90
31131;DHT22;20292;50.944;4.034;2022-12-20T14:38:34;12.50;99.90
31131;DHT22;20292;50.944;4.034;2022-12-20T14:41:00;12.50;99.90
31131;DHT22;20292;50.944;4.034;2022-12-20T14:43:33;12.50;99.90
31131;DHT22;20292;50.944;4.034;2022-12-20T14:46:18;12.50;99.90
31131;DHT22;20292;50.944;4.034;2022-12-20T14:48:44;12.50;99.90
31131;DHT22;20292;50.944;4.034;2022-12-20T14:51:12;12.60;99.90
31131;DHT22;20292;50.944;4.034;2022-12-20T14:53:38;12.60;99.90
31131;DHT22;20292;50.944;4.034;2022-12-20T14:56:05;12.60;99.90
31131;DHT22;20292;50.944;4.034;2022-12-20T14:58:37;12.70;99.90
31131;DHT22;20292;50.944;4.034;2022-12-20T15:01:20;12.60;99.90
31131;DHT22;20292;50.944;4.034;2022-12-20T15:03:54;12.60;99.90
31131;DHT22;20292;50.944;4.034;2022-12-20T15:06:33;12.60;99.90
31131;DHT22;20292;50.944;4.034;2022-12-20T15:08:59;12.60;99.90
31131;DHT22;20292;50.944;4.034;2022-12-20T15:11:25;12.60;99.90
31131;DHT22;20292;50.944;4.034;2022-12-20T15:13:53;12.60;99.90
31131;DHT22;20292;50.944;4.034;2022-12-20T15:16:22;12.60;99.90
31131;DHT22;20292;50.944;4.034;2022-12-20T15:18:50;12.60;99.90
31131;DHT22;20292;50.944;4.034;2022-12-20T15:21:25;12.50;99.90
31131;DHT22;20292;50.944;4.034;2022-12-20T15:23:53;12.50;99.90
31131;DHT22;20292;50.944;4.034;2022-12-20T15:26:22;12.60;99.90
31131;DHT22;20292;50.944;4.034;2022-12-20T15:28:48;12.60;99.90
31131;DHT22;20292;50.944;4.034;2022-12-20T15:31:16;12.60;99.90
31131;DHT22;20292;50.944;4.034;2022-12-20T15:33:43;12.60;99.90
31131;DHT22;20292;50.944;4.034;2022-12-20T15:36:16;12.70;99.90
31131;DHT22;20292;50.944;4.034;2022-12-20T15:38:42;12.70;99.90
31131;DHT22;20292;50.944;4.034;2022-12-20T15:41:32;12.60;99.90
31131;DHT22;20292;50.944;4.034;2022-12-20T15:43:59;12.60;99.90
31131;DHT22;20292;50.944;4.034;2022-12-20T15:46:26;12.70;99.90
31131;DHT22;20292;50.944;4.034;2022-12-20T15:48:54;12.60;99.90
31131;DHT22;20292;50.944;4.034;2022-12-20T15:51:29;12.60;99.90
31131;DHT22;20292;50.944;4.034;2022-12-20T15:53:56;12.60;99.90
31131;DHT22;20292;50.944;4.034;2022-12-20T15:56:23;12.70;99.90
31131;DHT22;20292;50.944;4.034;2022-12-20T15:58:49;12.70;99.90
31131;DHT22;20292;50.944;4.034;2022-12-20T16:01:37;12.60;99.90
31131;DHT22;20292;50.944;4.034;2022-12-20T16:04:03;12.70;99.90
31131;DHT22;20292;50.944;4.034;2022-12-20T16:06:29;12.70;99.90
31131;DHT22;20292;50.944;4.034;2022-12-20T16:08:55;12.60;99.90
31131;DHT22;20292;50.944;4.034;2022-12-20T16:11:23;12.70;99.90
31131;DHT22;20292;50.944;4.034;2022-12-20T16:13:49;12.60;99.90
31131;DHT22;20292;50.944;4.034;2022-12-20T16:16:20;12.60;99.90
31131;DHT22;20292;50.944;4.034;2022-12-20T16:18:45;12.60;99.90
31131;DHT22;20292;50.944;4.034;2022-12-20T16:21:16;12.60;99.90
31131;DHT22;20292;50.944;4.034;2022-12-20T16:23:43;12.60;99.90
31131;DHT22;20292;50.944;4.034;2022-12-20T16:26:13;12.60;99.90
31131;DHT22;20292;50.944;4.034;2022-12-20T16:28:40;12.50;99.90
31131;DHT22;20292;50.944;4.034;2022-12-20T16:31:29;12.50;99.90
31131;DHT22;20292;50.944;4.034;2022-12-20T16:33:56;12.50;99.90
31131;DHT22;20292;50.944;4.034;2022-12-20T16:36:22;12.50;99.90
31131;DHT22;20292;50.944;4.034;2022-12-20T16:38:49;12.40;99.90
31131;DHT22;20292;50.944;4.034;2022-12-20T16:41:18;12.40;99.90
31131;DHT22;20292;50.944;4.034;2022-12-20T16:43:45;12.40;99.90
31131;DHT22;20292;50.944;4.034;2022-12-20T16:46:13;12.40;99.90
31131;DHT22;20292;50.944;4.034;2022-12-20T16:48:39;12.50;99.90
31131;DHT22;20292;50.944;4.034;2022-12-20T16:51:37;12.50;99.90
31131;DHT22;20292;50.944;4.034;2022-12-20T16:54:26;12.50;99.90
31131;DHT22;20292;50.944;4.034;2022-12-20T16:56:51;12.50;99.90
31131;DHT22;20292;50.944;4.034;2022-12-20T16:59:20;12.50;99.90
31131;DHT22;20292;50.944;4.034;2022-12-20T17:01:47;12.50;99.90
31131;DHT22;20292;50.944;4.034;2022-12-20T17:04:14;12.50;99.90
31131;DHT22;20292;50.944;4.034;2022-12-20T17:06:41;12.50;99.90
31131;DHT22;20292;50.944;4.034;2022-12-20T17:09:07;12.50;99.90
31131;DHT22;20292;50.944;4.034;2022-12-20T17:11:33;12.40;99.90
31131;DHT22;20292;50.944;4.034;2022-12-20T17:13:59;12.40;99.90
31131;DHT22;20292;50.944;4.034;2022-12-20T17:16:25;12.40;99.90
31131;DHT22;20292;50.944;4.034;2022-12-20T17:18:52;12.40;99.90
31131;DHT22;20292;50.944;4.034;2022-12-20T17:21:23;12.40;99.90
31131;DHT22;20292;50.944;4.034;2022-12-20T17:23:51;12.40;99.90
31131;DHT22;20292;50.944;4.034;2022-12-20T17:26:23;12.40;99.90
31131;DHT22;20292;50.944;4.034;2022-12-20T17:28:49;12.40;99.90
31131;DHT22;20292;50.944;4.034;2022-12-20T17:31:36;12.40;99.90
31131;DHT22;20292;50.944;4.034;2022-12-20T17:34:28;12.40;99.90
31131;DHT22;20292;50.944;4.034;2022-12-20T17:36:56;12.50;99.90
31131;DHT22;20292;50.944;4.034;2022-12-20T17:39:22;12.40;99.90